createdAt,value
2018-06-11T00:01:41.859Z,19.13
2018-06-11T00:04:10.506Z,20.30
2018-06-11T00:06:38.972Z,20.50
2018-06-11T00:09:08.493Z,19.73
2018-06-11T00:11:37.424Z,20.63
2018-06-11T00:14:06.111Z,20.57
2018-06-11T00:16:35.035Z,19.53
2018-06-11T00:19:03.591Z,23.53
2018-06-11T00:21:32.271Z,22.20
2018-06-11T00:24:01.139Z,22.07
2018-06-11T00:26:29.726Z,23.90
2018-06-11T00:28:58.289Z,26.17
2018-06-11T00:31:27.604Z,23.87
2018-06-11T00:33:56.113Z,23.20
2018-06-11T00:36:24.784Z,23.30
2018-06-11T00:38:53.307Z,23.80
2018-06-11T00:41:22.007Z,23.77
2018-06-11T00:43:50.900Z,24.90
2018-06-11T00:46:19.420Z,25.10
2018-06-11T00:48:47.882Z,25.77
2018-06-11T00:51:16.768Z,25.37
2018-06-11T00:53:45.263Z,27.37
2018-06-11T00:56:13.744Z,25.87
2018-06-11T00:58:42.344Z,28.53
2018-06-11T01:01:10.853Z,26.53
2018-06-11T01:03:39.397Z,27.97
2018-06-11T01:06:07.878Z,27.50
2018-06-11T01:08:36.450Z,26.67
2018-06-11T01:11:04.973Z,27.37
2018-06-11T01:13:33.509Z,25.70
2018-06-11T01:16:02.008Z,28.23
2018-06-11T01:18:30.646Z,27.93
2018-06-11T01:20:59.360Z,28.00
2018-06-11T01:23:27.867Z,27.73
2018-06-11T01:25:56.571Z,26.50
2018-06-11T01:28:25.262Z,27.13
2018-06-11T01:30:53.753Z,26.90
2018-06-11T01:33:22.435Z,27.93
2018-06-11T01:35:50.954Z,27.00
2018-06-11T01:38:19.441Z,26.90
2018-06-11T01:40:47.958Z,25.97
2018-06-11T01:43:16.439Z,29.20
2018-06-11T01:45:45.277Z,28.97
2018-06-11T01:48:13.975Z,26.27
2018-06-11T01:50:42.462Z,27.80
2018-06-11T01:53:11.092Z,26.40
2018-06-11T01:55:39.644Z,27.17
2018-06-11T01:58:08.183Z,28.53
2018-06-11T02:00:36.799Z,25.57
2018-06-11T02:03:05.491Z,29.00
2018-06-11T02:05:34.006Z,27.67
2018-06-11T02:08:02.531Z,27.23
2018-06-11T02:10:31.064Z,28.50
2018-06-11T02:12:59.699Z,26.67
2018-06-11T02:15:28.399Z,27.97
2018-06-11T02:17:57.160Z,27.73
2018-06-11T02:20:25.534Z,26.87
2018-06-11T02:22:54.227Z,25.80
2018-06-11T02:25:22.962Z,27.57
2018-06-11T02:27:51.443Z,25.93
2018-06-11T02:30:20.065Z,27.90
2018-06-11T02:32:48.571Z,27.57
2018-06-11T02:35:17.067Z,27.63
2018-06-11T02:37:45.723Z,28.63
2018-06-11T02:40:14.259Z,25.77
2018-06-11T02:42:42.915Z,26.23
2018-06-11T02:45:11.453Z,28.73
2018-06-11T02:47:40.319Z,28.73
2018-06-11T02:50:08.787Z,28.10
2018-06-11T02:52:37.423Z,27.27
2018-06-11T02:55:06.254Z,28.40
2018-06-11T02:57:34.806Z,28.50
2018-06-11T03:00:03.415Z,29.03
2018-06-11T03:02:32.006Z,28.47
2018-06-11T03:05:00.560Z,28.60
2018-06-11T03:07:29.088Z,28.87
2018-06-11T03:09:57.636Z,30.93
2018-06-11T03:12:26.137Z,30.77
2018-06-11T03:14:55.218Z,29.47
2018-06-11T03:17:23.827Z,30.80
2018-06-11T03:19:52.412Z,30.40
2018-06-11T03:22:20.908Z,29.77
2018-06-11T03:24:49.427Z,29.03
2018-06-11T03:27:17.918Z,28.50
2018-06-11T03:29:46.443Z,27.77
2018-06-11T03:32:14.990Z,28.40
2018-06-11T03:34:43.487Z,28.87
2018-06-11T03:37:12.196Z,28.43
2018-06-11T03:39:40.765Z,26.53
2018-06-11T03:42:09.635Z,28.40
2018-06-11T03:44:38.270Z,27.63
2018-06-11T03:47:06.902Z,27.67
2018-06-11T03:49:35.420Z,27.43
2018-06-11T03:52:03.907Z,26.87
2018-06-11T03:54:32.732Z,27.03
2018-06-11T03:57:01.299Z,27.17
2018-06-11T03:59:29.825Z,27.93
2018-06-11T04:01:58.367Z,27.73
2018-06-11T04:04:26.915Z,28.07
2018-06-11T04:06:55.441Z,28.70
2018-06-11T04:09:23.945Z,28.77
2018-06-11T04:11:52.565Z,27.13
2018-06-11T04:14:21.130Z,28.77
2018-06-11T04:16:49.610Z,28.93
2018-06-11T04:19:18.343Z,27.37
2018-06-11T04:21:47.020Z,27.43
2018-06-11T04:24:15.719Z,27.40
2018-06-11T04:26:44.403Z,27.00
2018-06-11T04:29:13.104Z,27.23
2018-06-11T04:31:41.727Z,26.63
2018-06-11T04:34:10.317Z,26.10
2018-06-11T04:36:39.145Z,26.37
2018-06-11T04:39:08.414Z,25.93
2018-06-11T04:41:37.063Z,24.77
2018-06-11T04:44:05.591Z,25.13
2018-06-11T04:46:34.163Z,25.10
2018-06-11T04:49:02.877Z,26.67
2018-06-11T04:51:31.445Z,26.63
2018-06-11T04:54:00.317Z,26.97
2018-06-11T04:56:28.896Z,25.27
2018-06-11T04:58:57.424Z,26.80
2018-06-11T05:01:26.064Z,26.03
2018-06-11T05:03:54.832Z,24.27
2018-06-11T05:06:23.447Z,24.50
2018-06-11T05:08:51.994Z,23.93
2018-06-11T05:11:20.494Z,22.63
2018-06-11T05:13:49.125Z,19.97
2018-06-11T05:16:17.685Z,19.37
2018-06-11T05:18:46.322Z,20.97
2018-06-11T05:21:14.830Z,19.60
2018-06-11T05:23:43.535Z,21.17
2018-06-11T05:26:12.029Z,20.40
2018-06-11T05:28:40.667Z,20.20
2018-06-11T05:31:09.417Z,21.20
2018-06-11T05:33:37.758Z,21.13
2018-06-11T05:36:06.255Z,20.43
2018-06-11T05:38:34.798Z,21.37
2018-06-11T05:41:03.611Z,21.00
2018-06-11T05:43:32.095Z,21.97
2018-06-11T05:46:00.628Z,20.53
2018-06-11T05:48:29.605Z,21.73
2018-06-11T05:50:58.267Z,20.77
2018-06-11T05:53:26.821Z,21.63
2018-06-11T05:55:55.612Z,19.50
2018-06-11T05:58:24.347Z,19.93
2018-06-11T06:00:52.896Z,19.37
2018-06-11T06:03:21.433Z,18.43
2018-06-11T06:05:49.928Z,18.47
2018-06-11T06:08:18.677Z,16.97
2018-06-11T06:10:47.157Z,18.67
2018-06-11T06:13:15.844Z,18.57
2018-06-11T06:15:44.507Z,17.20
2018-06-11T06:18:13.020Z,18.10
2018-06-11T06:20:41.515Z,17.53
2018-06-11T06:23:10.055Z,15.80
2018-06-11T06:25:38.539Z,17.33
2018-06-11T06:28:07.101Z,17.90
2018-06-11T06:30:35.701Z,17.17
2018-06-11T06:33:04.502Z,16.10
2018-06-11T06:35:33.177Z,17.83
2018-06-11T06:38:01.670Z,15.87
2018-06-11T06:40:30.773Z,16.03
2018-06-11T06:42:59.247Z,15.43
2018-06-11T06:45:27.724Z,14.93
2018-06-11T06:47:56.435Z,16.40
2018-06-11T06:50:24.951Z,16.40
2018-06-11T06:52:53.513Z,15.43
2018-06-11T06:55:22.301Z,15.67
2018-06-11T06:57:50.850Z,16.13
2018-06-11T07:00:19.344Z,15.90
2018-06-11T07:02:47.963Z,15.87
2018-06-11T07:05:16.493Z,17.10
2018-06-11T07:07:45.061Z,18.20
2018-06-11T07:10:13.990Z,17.23
2018-06-11T07:12:42.659Z,17.57
2018-06-11T07:15:11.219Z,17.67
2018-06-11T07:17:39.812Z,16.17
2018-06-11T07:20:08.460Z,17.77
2018-06-11T07:22:37.725Z,18.27
2018-06-11T07:25:06.607Z,16.57
2018-06-11T07:27:35.296Z,16.47
2018-06-11T07:30:03.911Z,16.30
2018-06-11T07:32:32.597Z,17.53
2018-06-11T07:35:01.092Z,16.00
2018-06-11T07:37:29.654Z,16.63
2018-06-11T07:39:58.223Z,17.20
2018-06-11T07:42:26.706Z,15.93
2018-06-11T07:44:55.311Z,16.67
2018-06-11T07:47:25.010Z,15.77
2018-06-11T07:49:53.514Z,15.90
2018-06-11T07:52:22.108Z,15.27
2018-06-11T07:54:50.631Z,15.03
2018-06-11T07:57:19.331Z,15.13
2018-06-11T07:59:47.855Z,13.77
2018-06-11T08:02:16.427Z,15.80
2018-06-11T08:04:45.001Z,15.87
2018-06-11T08:07:13.652Z,16.63
2018-06-11T08:09:42.185Z,15.70
2018-06-11T08:12:10.662Z,15.73
2018-06-11T08:14:39.165Z,16.30
2018-06-11T08:17:07.827Z,16.67
2018-06-11T08:19:36.333Z,17.87
2018-06-11T08:22:05.359Z,16.03
2018-06-11T08:24:34.040Z,16.50
2018-06-11T08:27:02.742Z,16.23
2018-06-11T08:29:31.346Z,14.83
2018-06-11T08:31:59.874Z,15.20
2018-06-11T08:34:28.369Z,15.13
2018-06-11T08:36:57.387Z,14.63
2018-06-11T08:39:25.962Z,14.33
2018-06-11T08:41:54.620Z,14.47
2018-06-11T08:44:23.112Z,12.47
2018-06-11T08:46:51.487Z,12.80
2018-06-11T08:49:20.199Z,12.93
2018-06-11T08:51:48.782Z,12.70
2018-06-11T08:54:17.462Z,14.20
2018-06-11T08:56:45.967Z,12.88
2018-06-11T08:59:14.520Z,12.68
2018-06-11T09:01:43.233Z,12.20
2018-06-11T09:04:11.864Z,11.85
2018-06-11T09:06:40.436Z,11.57
2018-06-11T09:09:09.343Z,12.20
2018-06-11T09:11:38.015Z,12.33
2018-06-11T09:14:06.500Z,13.00
2018-06-11T09:16:35.289Z,13.43
2018-06-11T09:19:03.803Z,13.25
2018-06-11T09:21:32.528Z,13.50
2018-06-11T09:24:01.273Z,12.93
2018-06-11T09:26:30.022Z,12.40
2018-06-11T09:28:58.661Z,11.65
2018-06-11T09:31:27.401Z,10.85
2018-06-11T09:33:56.112Z,11.00
2018-06-11T09:36:24.632Z,10.65
2018-06-11T09:38:53.181Z,10.53
2018-06-11T09:41:21.555Z,10.00
2018-06-11T09:43:50.063Z,9.80
2018-06-11T09:46:18.742Z,9.38
2018-06-11T09:48:47.219Z,10.95
2018-06-11T09:51:15.918Z,11.65
2018-06-11T09:53:44.603Z,12.05
2018-06-11T09:56:13.120Z,10.05
2018-06-11T09:58:41.846Z,10.95
2018-06-11T10:01:10.419Z,10.60
2018-06-11T10:03:39.020Z,10.63
2018-06-11T10:06:07.601Z,11.00
2018-06-11T10:08:36.208Z,10.30
2018-06-11T10:11:04.880Z,9.83
2018-06-11T10:13:33.483Z,9.05
2018-06-11T10:16:02.179Z,10.15
2018-06-11T10:18:31.194Z,11.28
2018-06-11T10:20:59.736Z,9.50
2018-06-11T10:23:28.291Z,9.68
2018-06-11T10:25:57.108Z,10.58
2018-06-11T10:28:25.724Z,10.60
2018-06-11T10:30:54.315Z,10.58
2018-06-11T10:33:22.860Z,11.33
2018-06-11T10:35:51.584Z,11.15
2018-06-11T10:38:20.225Z,9.70
2018-06-11T10:40:49.066Z,9.33
2018-06-11T10:43:17.605Z,7.97
2018-06-11T10:45:46.125Z,9.15
2018-06-11T10:48:14.630Z,9.80
2018-06-11T10:50:43.353Z,9.75
2018-06-11T10:53:11.867Z,9.63
2018-06-11T10:55:40.404Z,7.87
2018-06-11T10:58:09.127Z,9.30
2018-06-11T11:00:37.835Z,8.00
2018-06-11T11:03:06.628Z,7.05
2018-06-11T11:05:35.245Z,6.80
2018-06-11T11:08:03.776Z,7.67
2018-06-11T11:10:32.458Z,7.67
2018-06-11T11:13:01.484Z,7.75
2018-06-11T11:15:30.059Z,6.87
2018-06-11T11:17:58.755Z,7.90
2018-06-11T11:20:27.480Z,7.45
2018-06-11T11:22:55.996Z,7.25
2018-06-11T11:25:24.662Z,7.60
2018-06-11T11:27:53.372Z,7.15
2018-06-11T11:30:21.858Z,6.37
2018-06-11T11:32:50.377Z,6.75
2018-06-11T11:35:18.945Z,6.58
2018-06-11T11:37:47.558Z,6.42
2018-06-11T11:40:16.175Z,6.05
2018-06-11T11:42:44.633Z,6.00
2018-06-11T11:45:13.430Z,7.15
2018-06-11T11:47:42.083Z,5.95
2018-06-11T11:50:10.236Z,5.58
2018-06-11T11:52:38.789Z,6.28
2018-06-11T11:55:07.270Z,5.78
2018-06-11T11:57:35.994Z,6.00
2018-06-11T12:00:05.317Z,5.95
2018-06-11T12:02:33.836Z,6.35
2018-06-11T12:05:02.425Z,5.80
2018-06-11T12:07:31.376Z,5.67
2018-06-11T12:09:59.995Z,5.00
2018-06-11T12:12:28.671Z,5.80
2018-06-11T12:14:57.621Z,6.28
2018-06-11T12:17:26.233Z,5.80
2018-06-11T12:19:54.950Z,5.47
2018-06-11T12:22:23.487Z,5.53
2018-06-11T12:24:52.135Z,5.40
2018-06-11T12:27:20.718Z,5.50
2018-06-11T12:29:49.407Z,5.62
2018-06-11T12:32:18.247Z,6.10
2018-06-11T12:34:47.133Z,4.97
2018-06-11T12:37:15.621Z,4.17
2018-06-11T12:39:44.171Z,4.55
2018-06-11T12:42:12.658Z,4.75
2018-06-11T12:44:41.403Z,4.40
2018-06-11T12:47:10.101Z,5.00
2018-06-11T12:49:38.830Z,4.75
2018-06-11T12:52:07.648Z,4.40
2018-06-11T12:54:36.146Z,4.17
2018-06-11T12:57:05.000Z,5.40
2018-06-11T12:59:33.757Z,5.17
2018-06-11T13:02:02.400Z,4.40
2018-06-11T13:04:31.069Z,4.83
2018-06-11T13:06:59.826Z,4.80
2018-06-11T13:09:28.445Z,5.03
2018-06-11T13:11:57.670Z,5.53
2018-06-11T13:14:26.360Z,4.97
2018-06-11T13:16:54.992Z,5.42
2018-06-11T13:19:23.561Z,5.17
2018-06-11T13:21:52.322Z,5.45
2018-06-11T13:24:21.081Z,5.20
2018-06-11T13:26:50.093Z,4.67
2018-06-11T13:29:18.932Z,5.20
2018-06-11T13:31:47.578Z,4.78
2018-06-11T13:34:16.289Z,4.92
2018-06-11T13:36:45.050Z,6.90
2018-06-11T13:39:13.796Z,6.62
2018-06-11T13:41:42.521Z,5.80
2018-06-11T13:44:11.176Z,5.85
2018-06-11T13:46:39.827Z,6.62
2018-06-11T13:49:08.536Z,5.90
2018-06-11T13:51:37.435Z,6.00
2018-06-11T13:54:06.081Z,5.75
2018-06-11T13:56:34.632Z,6.22
2018-06-11T13:59:03.428Z,6.15
2018-06-11T14:01:32.065Z,6.03
2018-06-11T14:04:00.668Z,6.87
2018-06-11T14:06:29.373Z,6.60
2018-06-11T14:08:57.919Z,6.97
2018-06-11T14:11:26.511Z,7.22
2018-06-11T14:13:55.245Z,6.72
2018-06-11T14:16:23.639Z,6.60
2018-06-11T14:18:52.378Z,6.00
2018-06-11T14:21:20.971Z,5.70
2018-06-11T14:23:49.802Z,5.37
2018-06-11T14:26:18.472Z,5.03
2018-06-11T14:28:47.040Z,5.30
2018-06-11T14:31:15.604Z,5.12
2018-06-11T14:33:44.340Z,4.97
2018-06-11T14:36:13.103Z,5.35
2018-06-11T14:38:41.664Z,5.90
2018-06-11T14:41:10.252Z,6.17
2018-06-11T14:43:39.086Z,5.37
2018-06-11T14:46:07.995Z,4.40
2018-06-11T14:48:36.523Z,4.53
2018-06-11T14:51:05.469Z,4.92
2018-06-11T14:53:34.497Z,5.53
2018-06-11T14:56:03.220Z,6.00
2018-06-11T14:58:32.169Z,5.78
2018-06-11T15:01:00.848Z,6.35
2018-06-11T15:03:29.601Z,7.22
2018-06-11T15:05:58.149Z,6.20
2018-06-11T15:08:26.975Z,6.67
2018-06-11T15:10:55.788Z,7.17
2018-06-11T15:13:24.650Z,6.33
2018-06-11T15:15:53.474Z,6.55
2018-06-11T15:18:22.554Z,6.35
2018-06-11T15:20:51.309Z,5.95
2018-06-11T15:23:20.117Z,6.67
2018-06-11T15:25:48.572Z,5.92
2018-06-11T15:28:17.342Z,5.83
2018-06-11T15:30:45.939Z,6.00
2018-06-11T15:33:14.942Z,5.83
2018-06-11T15:35:43.813Z,5.55
2018-06-11T15:38:12.622Z,6.10
2018-06-11T15:40:41.367Z,5.65
2018-06-11T15:43:10.153Z,5.80
2018-06-11T15:45:39.164Z,6.17
2018-06-11T15:48:07.823Z,5.97
2018-06-11T15:50:36.337Z,6.05
2018-06-11T15:53:05.082Z,6.80
2018-06-11T15:55:33.596Z,5.97
2018-06-11T15:58:02.853Z,7.00
2018-06-11T16:00:31.597Z,6.20
2018-06-11T16:03:00.748Z,6.60
2018-06-11T16:05:29.465Z,6.57
2018-06-11T16:07:58.395Z,6.87
2018-06-11T16:10:27.146Z,6.40
2018-06-11T16:12:55.732Z,5.73
2018-06-11T16:15:24.770Z,6.33
2018-06-11T16:17:53.553Z,5.20
2018-06-11T16:20:22.370Z,6.40
2018-06-11T16:22:51.000Z,6.53
2018-06-11T16:25:19.888Z,6.60
2018-06-11T16:27:48.906Z,6.37
2018-06-11T16:30:17.872Z,6.43
2018-06-11T16:32:46.716Z,6.87
2018-06-11T16:35:15.491Z,6.80
2018-06-11T16:37:44.069Z,6.37
2018-06-11T16:40:12.840Z,6.17
2018-06-11T16:42:41.530Z,6.57
2018-06-11T16:45:10.738Z,6.20
2018-06-11T16:47:39.406Z,6.37
2018-06-11T16:50:08.107Z,5.97
2018-06-11T16:52:37.199Z,5.63
2018-06-11T16:55:06.081Z,6.10
2018-06-11T16:57:34.935Z,6.33
2018-06-11T17:00:03.680Z,6.57
2018-06-11T17:02:32.453Z,6.80
2018-06-11T17:05:01.561Z,6.10
2018-06-11T17:07:30.550Z,6.10
2018-06-11T17:09:59.229Z,6.87
2018-06-11T17:12:28.014Z,7.70
2018-06-11T17:14:56.575Z,7.17
2018-06-11T17:17:25.347Z,7.07
2018-06-11T17:19:53.923Z,7.17
2018-06-11T17:22:22.803Z,8.03
2018-06-11T17:24:51.767Z,7.13
2018-06-11T17:27:20.622Z,7.00
2018-06-11T17:29:49.186Z,6.97
2018-06-11T17:32:18.038Z,6.77
2018-06-11T17:34:47.345Z,7.03
2018-06-11T17:37:16.317Z,7.10
2018-06-11T17:39:45.101Z,6.60
2018-06-11T17:42:14.110Z,6.67
2018-06-11T17:44:42.973Z,6.33
2018-06-11T17:47:11.720Z,6.23
2018-06-11T17:49:40.605Z,6.20
2018-06-11T17:52:09.439Z,6.23
2018-06-11T17:54:38.253Z,6.90
2018-06-11T17:57:07.272Z,6.57
2018-06-11T17:59:36.018Z,5.87
2018-06-11T18:02:04.790Z,6.53
2018-06-11T18:04:33.757Z,6.50
2018-06-11T18:07:02.630Z,6.33
2018-06-11T18:09:31.697Z,6.10
2018-06-11T18:12:00.770Z,6.63
2018-06-11T18:14:29.630Z,6.40
2018-06-11T18:16:58.512Z,5.73
2018-06-11T18:19:27.622Z,6.10
2018-06-11T18:21:56.569Z,6.20
2018-06-11T18:24:25.391Z,6.10
2018-06-11T18:26:54.228Z,6.60
2018-06-11T18:29:23.441Z,6.33
2018-06-11T18:31:52.178Z,5.90
2018-06-11T18:34:20.828Z,5.93
2018-06-11T18:36:49.661Z,6.40
2018-06-11T18:39:19.697Z,5.90
2018-06-11T18:41:48.671Z,5.93
2018-06-11T18:44:17.428Z,5.93
2018-06-11T18:46:46.341Z,6.03
2018-06-11T18:49:15.578Z,6.30
2018-06-11T18:51:44.693Z,6.13
2018-06-11T18:54:13.297Z,6.17
2018-06-11T18:56:42.327Z,6.77
2018-06-11T18:59:11.274Z,6.50
2018-06-11T19:01:40.338Z,6.20
2018-06-11T19:04:09.466Z,6.17
2018-06-11T19:06:38.119Z,7.07
2018-06-11T19:09:08.619Z,6.60
2018-06-11T19:11:38.214Z,6.47
2018-06-11T19:14:07.126Z,6.40
2018-06-11T19:16:36.131Z,6.70
2018-06-11T19:19:04.892Z,6.10
2018-06-11T19:21:33.765Z,6.40
2018-06-11T19:24:02.432Z,6.97
2018-06-11T19:26:31.127Z,6.53
2018-06-11T19:28:59.910Z,6.57
2018-06-11T19:31:29.190Z,6.70
2018-06-11T19:33:57.921Z,6.23
2018-06-11T19:36:27.009Z,6.40
2018-06-11T19:38:55.809Z,6.70
2018-06-11T19:41:24.779Z,6.50
2018-06-11T19:43:53.842Z,7.40
2018-06-11T19:46:22.980Z,6.50
2018-06-11T19:48:52.151Z,6.57
2018-06-11T19:51:20.906Z,6.00
2018-06-11T19:53:49.974Z,6.27
2018-06-11T19:56:18.397Z,7.10
2018-06-11T19:58:47.274Z,6.67
2018-06-11T20:01:15.911Z,6.90
2018-06-11T20:03:44.982Z,6.60
2018-06-11T20:06:13.754Z,7.07
2018-06-11T20:08:42.667Z,7.03
2018-06-11T20:11:11.297Z,6.63
2018-06-11T20:13:39.871Z,7.33
2018-06-11T20:16:08.420Z,7.50
2018-06-11T20:18:37.339Z,7.30
2018-06-11T20:21:06.125Z,7.00
2018-06-11T20:23:34.766Z,7.93
2018-06-11T20:26:03.496Z,7.03
2018-06-11T20:28:32.349Z,6.97
2018-06-11T20:31:00.959Z,7.30
2018-06-11T20:33:29.982Z,7.50
2018-06-11T20:35:58.622Z,7.93
2018-06-11T20:38:27.334Z,7.47
2018-06-11T20:40:55.954Z,7.00
2018-06-11T20:43:24.647Z,7.40
2018-06-11T20:45:53.568Z,7.13
2018-06-11T20:48:22.506Z,7.60
2018-06-11T20:50:51.374Z,7.53
2018-06-11T20:53:20.474Z,8.10
2018-06-11T20:55:49.243Z,7.40
2018-06-11T20:58:17.941Z,7.90
2018-06-11T21:00:46.940Z,8.57
2018-06-11T21:03:15.628Z,8.97
2018-06-11T21:05:44.201Z,8.03
2018-06-11T21:08:12.986Z,8.17
2018-06-11T21:10:41.835Z,8.27
2018-06-11T21:13:10.616Z,8.53
2018-06-11T21:15:39.376Z,8.37
2018-06-11T21:18:08.172Z,8.53
2018-06-11T21:20:37.080Z,8.43
2018-06-11T21:23:05.652Z,7.63
2018-06-11T21:25:34.170Z,8.57
2018-06-11T21:28:02.888Z,9.47
2018-06-11T21:30:31.697Z,9.23
2018-06-11T21:33:00.305Z,9.53
2018-06-11T21:35:29.146Z,8.47
2018-06-11T21:37:57.696Z,9.50
2018-06-11T21:40:26.520Z,8.57
2018-06-11T21:42:55.085Z,9.20
2018-06-11T21:45:23.969Z,9.53
2018-06-11T21:47:52.485Z,8.93
2018-06-11T21:50:20.804Z,8.30
2018-06-11T21:52:49.422Z,9.50
2018-06-11T21:55:18.308Z,8.83
2018-06-11T21:57:46.848Z,8.97
2018-06-11T22:00:16.417Z,9.30
2018-06-11T22:02:45.052Z,10.00
2018-06-11T22:05:13.735Z,9.00
2018-06-11T22:07:42.530Z,8.77
2018-06-11T22:10:11.045Z,9.33
2018-06-11T22:12:39.584Z,9.60
2018-06-11T22:15:08.120Z,9.20
2018-06-11T22:17:36.710Z,10.03
2018-06-11T22:20:05.109Z,10.60
2018-06-11T22:22:33.674Z,9.87
2018-06-11T22:25:02.923Z,10.20
2018-06-11T22:27:31.671Z,9.83
2018-06-11T22:30:00.430Z,9.43
2018-06-11T22:32:29.026Z,10.13
2018-06-11T22:34:58.160Z,10.47
2018-06-11T22:37:26.699Z,10.37
2018-06-11T22:39:55.465Z,9.57
2018-06-11T22:42:24.203Z,10.17
2018-06-11T22:44:52.919Z,9.77
2018-06-11T22:47:21.743Z,9.63
2018-06-11T22:49:50.227Z,9.63
2018-06-11T22:52:18.741Z,9.37
2018-06-11T22:54:47.337Z,9.13
2018-06-11T22:57:15.832Z,9.90
2018-06-11T22:59:44.318Z,9.57
2018-06-11T23:02:13.081Z,9.87
2018-06-11T23:04:42.085Z,10.67
2018-06-11T23:07:11.176Z,10.30
2018-06-11T23:09:39.672Z,10.10
2018-06-11T23:12:08.194Z,9.57
2018-06-11T23:14:36.818Z,8.97
2018-06-11T23:17:05.332Z,10.07
2018-06-11T23:19:33.861Z,10.20
2018-06-11T23:22:03.228Z,9.17
2018-06-11T23:24:31.751Z,9.60
2018-06-11T23:27:00.264Z,10.07
2018-06-11T23:29:28.780Z,9.03
2018-06-11T23:31:57.418Z,9.80
2018-06-11T23:34:26.057Z,10.47
2018-06-11T23:36:54.545Z,10.27
2018-06-11T23:39:22.730Z,11.03
2018-06-11T23:41:51.438Z,10.33
2018-06-11T23:44:20.252Z,10.20
2018-06-11T23:46:48.808Z,10.17
2018-06-11T23:49:17.461Z,9.90
2018-06-11T23:51:45.964Z,9.97
2018-06-11T23:54:14.467Z,9.63
2018-06-11T23:56:43.086Z,9.70
2018-06-11T23:59:11.652Z,9.63
